createdAt,value
2018-12-23T00:01:34.267Z,6.647949
2018-12-23T00:06:57.134Z,6.718445
2018-12-23T00:12:30.556Z,6.77887
2018-12-23T00:18:04.535Z,6.77887
2018-12-23T00:23:36.515Z,6.748657
2018-12-23T00:28:59.504Z,6.748657
2018-12-23T00:34:32.028Z,6.77887
2018-12-23T00:40:05.090Z,6.758728
2018-12-23T00:45:38.631Z,6.728516
2018-12-23T00:51:10.804Z,6.728516
2018-12-23T00:56:42.707Z,6.708374
2018-12-23T01:02:15.265Z,6.728516
2018-12-23T01:07:38.321Z,6.728516
2018-12-23T01:13:09.806Z,6.728516
2018-12-23T01:18:41.800Z,6.748657
2018-12-23T01:24:04.840Z,6.718445
2018-12-23T01:29:27.654Z,6.77887
2018-12-23T01:34:51.200Z,6.77887
2018-12-23T01:40:22.896Z,6.758728
2018-12-23T01:45:45.906Z,6.78894
2018-12-23T01:51:08.893Z,6.809082
2018-12-23T01:56:31.604Z,6.809082
2018-12-23T02:01:54.402Z,6.809082
2018-12-23T02:07:18.153Z,6.809082
2018-12-23T02:12:49.823Z,6.829224
2018-12-23T02:18:12.768Z,6.819153
2018-12-23T02:23:45.404Z,6.819153
2018-12-23T02:29:17.576Z,6.829224
2018-12-23T02:34:40.345Z,6.899719
2018-12-23T02:40:03.080Z,6.899719
2018-12-23T02:45:25.816Z,6.929932
2018-12-23T02:50:48.557Z,6.929932
2018-12-23T02:56:11.229Z,6.90979
2018-12-23T03:01:33.961Z,6.899719
2018-12-23T03:06:57.368Z,6.90979
2018-12-23T03:12:20.185Z,6.940002
2018-12-23T03:17:42.891Z,6.899719
2018-12-23T03:23:05.625Z,6.688232
2018-12-23T03:28:28.322Z,6.496887
2018-12-23T03:33:59.957Z,6.376038
2018-12-23T03:39:22.927Z,6.396179
2018-12-23T03:44:45.783Z,6.376038
2018-12-23T03:50:08.570Z,6.446533
2018-12-23T03:55:31.321Z,6.426392
2018-12-23T04:00:54.113Z,6.376038
2018-12-23T04:06:24.379Z,6.376038
2018-12-23T04:11:40.166Z,6.456604
2018-12-23T04:17:02.862Z,6.416321
2018-12-23T04:22:25.748Z,6.386108
2018-12-23T04:27:49.269Z,6.416321
2018-12-23T04:33:12.061Z,6.396179
2018-12-23T04:38:35.524Z,6.376038
2018-12-23T04:43:58.215Z,6.396179
2018-12-23T04:49:21.209Z,6.426392
2018-12-23T04:54:43.900Z,6.396179
2018-12-23T05:00:06.945Z,6.446533
2018-12-23T05:05:29.587Z,6.456604
2018-12-23T05:10:52.366Z,6.496887
2018-12-23T05:16:15.699Z,6.476746
2018-12-23T05:21:38.681Z,6.5271
2018-12-23T05:27:01.278Z,6.53717
2018-12-23T05:32:24.267Z,6.53717
2018-12-23T05:37:47.181Z,6.577454
2018-12-23T05:43:10.127Z,6.607666
2018-12-23T05:48:42.071Z,6.607666
2018-12-23T05:54:05.103Z,6.607666
2018-12-23T05:59:37.567Z,6.627808
2018-12-23T06:05:00.642Z,6.597595
2018-12-23T06:10:23.450Z,6.607666
2018-12-23T06:15:47.143Z,6.688232
2018-12-23T06:21:19.589Z,6.718445
2018-12-23T06:26:42.938Z,6.708374
2018-12-23T06:32:05.544Z,6.748657
2018-12-23T06:37:28.258Z,6.78894
2018-12-23T06:42:51.355Z,6.77887
2018-12-23T06:48:14.067Z,6.859436
2018-12-23T06:53:46.731Z,6.859436
2018-12-23T06:59:10.146Z,6.819153
2018-12-23T07:04:34.297Z,6.758728
2018-12-23T07:10:04.518Z,6.78894
2018-12-23T07:15:28.479Z,6.78894
2018-12-23T07:21:08.063Z,6.77887
2018-12-23T07:26:44.721Z,6.688232
2018-12-23T07:32:07.342Z,6.637878
2018-12-23T07:37:39.108Z,6.607666
2018-12-23T07:43:12.315Z,6.627808
2018-12-23T07:48:35.382Z,6.688232
2018-12-23T07:53:58.233Z,6.748657
2018-12-23T07:59:21.714Z,6.728516
2018-12-23T08:04:44.588Z,6.758728
2018-12-23T08:10:07.484Z,6.77887
2018-12-23T08:15:30.131Z,6.748657
2018-12-23T08:20:53.012Z,6.728516
2018-12-23T08:26:15.841Z,6.758728
2018-12-23T08:31:38.469Z,6.809082
2018-12-23T08:37:02.397Z,6.78894
2018-12-23T08:42:25.080Z,6.829224
2018-12-23T08:47:57.531Z,6.819153
2018-12-23T08:53:20.474Z,6.859436
2018-12-23T08:58:43.359Z,6.889648
2018-12-23T09:04:06.173Z,6.899719
2018-12-23T09:09:29.424Z,6.960144
2018-12-23T09:14:52.159Z,6.940002
2018-12-23T09:20:15.027Z,6.990356
2018-12-23T09:25:38.046Z,7.010498
2018-12-23T09:31:01.009Z,7.04071
2018-12-23T09:36:32.801Z,7.080994
2018-12-23T09:41:55.534Z,7.111206
2018-12-23T09:47:18.517Z,7.121277
2018-12-23T09:52:41.403Z,7.16156
2018-12-23T09:58:04.252Z,7.232056
2018-12-23T10:03:27.178Z,7.232056
2018-12-23T10:08:49.918Z,7.242126
2018-12-23T10:14:12.878Z,7.242126
2018-12-23T10:19:35.636Z,7.262268
2018-12-23T10:24:58.508Z,7.272339
2018-12-23T10:30:21.218Z,7.342834
2018-12-23T10:35:44.116Z,7.373047
2018-12-23T10:41:06.952Z,7.41333
2018-12-23T10:46:29.726Z,7.453613
2018-12-23T10:51:52.495Z,7.453613
2018-12-23T10:57:14.194Z,7.503967
2018-12-23T11:02:36.941Z,7.554321
2018-12-23T11:08:00.373Z,7.554321
2018-12-23T11:13:23.280Z,7.54425
2018-12-23T11:18:46.089Z,7.584534
2018-12-23T11:24:08.744Z,7.574463
2018-12-23T11:29:31.558Z,7.54425
2018-12-23T11:34:54.397Z,7.453613
2018-12-23T11:40:17.447Z,7.473755
2018-12-23T11:45:40.215Z,7.41333
2018-12-23T11:51:02.897Z,7.342834
2018-12-23T11:56:25.698Z,7.29248
2018-12-23T12:01:48.651Z,7.262268
2018-12-23T12:07:11.458Z,7.232056
2018-12-23T12:12:34.827Z,7.121277
2018-12-23T12:17:57.517Z,7.111206
2018-12-23T12:23:21.068Z,7.010498
2018-12-23T12:28:43.790Z,6.970215
2018-12-23T12:34:06.480Z,6.970215
2018-12-23T12:39:38.316Z,6.90979
2018-12-23T12:45:01.345Z,6.78894
2018-12-23T12:50:24.306Z,6.77887
2018-12-23T12:55:47.137Z,6.78894
2018-12-23T13:01:09.878Z,6.859436
2018-12-23T13:06:43.972Z,6.819153
2018-12-23T13:12:17.263Z,6.77887
2018-12-23T13:17:40.622Z,6.758728
2018-12-23T13:23:12.577Z,6.77887
2018-12-23T13:28:35.885Z,6.77887
2018-12-23T13:33:58.526Z,6.728516
2018-12-23T13:39:21.269Z,6.748657
2018-12-23T13:44:52.948Z,6.708374
2018-12-23T13:50:15.913Z,6.688232
2018-12-23T13:55:38.789Z,6.647949
2018-12-23T14:01:01.443Z,6.597595
2018-12-23T14:06:24.509Z,6.5271
2018-12-23T14:11:47.160Z,6.456604
2018-12-23T14:17:10.016Z,6.446533
2018-12-23T14:22:32.727Z,6.416321
2018-12-23T14:27:55.525Z,6.416321
2018-12-23T14:33:19.272Z,6.386108
2018-12-23T14:38:42.113Z,6.376038
2018-12-23T14:44:05.622Z,6.325684
2018-12-23T14:49:38.018Z,6.194763
2018-12-23T14:55:01.061Z,6.104126
2018-12-23T15:00:23.921Z,6.164551
2018-12-23T15:05:46.624Z,6.164551
2018-12-23T15:11:09.306Z,6.174622
2018-12-23T15:16:32.054Z,6.104126
2018-12-23T15:21:54.963Z,6.053772
2018-12-23T15:27:17.809Z,6.02356
2018-12-23T15:32:51.599Z,5.993347
2018-12-23T15:38:24.070Z,5.993347
2018-12-23T15:43:47.300Z,6.02356
2018-12-23T15:49:20.075Z,5.983276
2018-12-23T15:54:52.181Z,5.932922
2018-12-23T16:00:25.848Z,5.963135
2018-12-23T16:11:48.272Z,6.02356
2018-12-23T16:17:12.103Z,6.03363
2018-12-23T16:28:27.577Z,5.983276
2018-12-23T16:33:59.807Z,5.983276
2018-12-23T16:39:32.851Z,5.872498
2018-12-23T16:44:55.955Z,5.872498
2018-12-23T16:50:27.896Z,5.90271
2018-12-23T16:55:51.434Z,5.922852
2018-12-23T17:01:24.963Z,5.932922
2018-12-23T17:06:48.072Z,5.932922
2018-12-23T17:12:11.620Z,5.953064
2018-12-23T17:17:34.534Z,5.953064
2018-12-23T17:22:57.370Z,5.90271
2018-12-23T17:28:20.164Z,5.882568
2018-12-23T17:33:51.891Z,5.852356
2018-12-23T17:39:15.306Z,5.852356
2018-12-23T17:44:46.983Z,5.832214
2018-12-23T17:50:10.179Z,5.812073
2018-12-23T17:55:33.046Z,5.751648
2018-12-23T18:01:05.474Z,5.691223
2018-12-23T18:06:28.597Z,5.671082
2018-12-23T18:12:00.643Z,5.620728
2018-12-23T18:17:34.157Z,5.590515
2018-12-23T18:23:08.237Z,5.52002
2018-12-23T18:28:31.175Z,5.590515
2018-12-23T18:34:04.488Z,5.590515
2018-12-23T18:39:28.230Z,5.550232
2018-12-23T18:44:51.204Z,5.479736
2018-12-23T18:50:23.668Z,5.479736
2018-12-23T18:55:55.804Z,5.479736
2018-12-23T19:01:18.714Z,5.489807
2018-12-23T19:06:51.098Z,5.550232
2018-12-23T19:12:13.991Z,5.560303
2018-12-23T19:17:36.793Z,5.560303
2018-12-23T19:23:00.075Z,5.580444
2018-12-23T19:28:36.732Z,5.52002
2018-12-23T19:33:58.574Z,5.449524
2018-12-23T19:39:21.381Z,5.419312
2018-12-23T19:44:53.204Z,5.469666
2018-12-23T19:50:17.714Z,5.489807
2018-12-23T19:55:40.528Z,5.489807
2018-12-23T20:01:13.390Z,5.479736
2018-12-23T20:06:36.400Z,5.469666
2018-12-23T20:11:59.148Z,5.479736
2018-12-23T20:17:30.908Z,5.419312
2018-12-23T20:22:53.898Z,5.288391
2018-12-23T20:28:16.583Z,5.238037
2018-12-23T20:33:48.745Z,5.258179
2018-12-23T20:39:21.469Z,5.167542
2018-12-23T20:44:44.597Z,5.056763
2018-12-23T20:50:16.559Z,4.966125
2018-12-23T20:55:39.808Z,4.835205
2018-12-23T21:01:12.486Z,4.835205
2018-12-23T21:06:36.489Z,4.77478
2018-12-23T21:12:08.092Z,4.825134
2018-12-23T21:17:32.232Z,4.77478
2018-12-23T21:22:55.112Z,4.804993
2018-12-23T21:28:17.807Z,4.794922
2018-12-23T21:33:40.796Z,4.804993
2018-12-23T21:39:03.625Z,4.744568
2018-12-23T21:44:26.386Z,4.714355
2018-12-23T21:49:49.323Z,4.744568
2018-12-23T21:55:12.748Z,4.825134
2018-12-23T22:00:36.492Z,4.804993
2018-12-23T22:05:59.358Z,4.825134
2018-12-23T22:11:22.899Z,4.835205
2018-12-23T22:16:46.638Z,4.855347
2018-12-23T22:22:09.270Z,4.865417
2018-12-23T22:27:32.341Z,4.89563
2018-12-23T22:32:55.462Z,4.855347
2018-12-23T22:38:18.167Z,4.855347
2018-12-23T22:43:40.986Z,4.835205
2018-12-23T22:49:03.737Z,4.825134
2018-12-23T22:54:26.532Z,4.825134
2018-12-23T23:00:01.585Z,4.804993
2018-12-23T23:05:24.805Z,4.804993
2018-12-23T23:10:47.546Z,4.77478
2018-12-23T23:16:10.517Z,4.754639
2018-12-23T23:21:33.189Z,4.754639
2018-12-23T23:27:04.746Z,4.77478
2018-12-23T23:32:28.092Z,4.794922
2018-12-23T23:38:01.733Z,4.804993
2018-12-23T23:43:24.944Z,4.865417
2018-12-23T23:48:47.977Z,4.865417
2018-12-23T23:54:10.707Z,4.89563
2018-12-23T23:59:33.444Z,4.935913
